sensor_id;sensor_type;location;lat;lon;timestamp;P1;durP1;ratioP1;P2;durP2;ratioP2
57087;SDS011;42965;52.846;6.614;2022-12-10T00:01:19;56.47;;;28.70;;
57087;SDS011;42965;52.846;6.614;2022-12-10T00:03:46;58.25;;;28.83;;
57087;SDS011;42965;52.846;6.614;2022-12-10T00:06:16;59.55;;;30.40;;
57087;SDS011;42965;52.846;6.614;2022-12-10T00:08:47;56.70;;;29.42;;
57087;SDS011;42965;52.846;6.614;2022-12-10T00:11:14;55.80;;;28.40;;
57087;SDS011;42965;52.846;6.614;2022-12-10T00:13:41;58.45;;;30.08;;
57087;SDS011;42965;52.846;6.614;2022-12-10T00:16:09;56.53;;;28.88;;
57087;SDS011;42965;52.846;6.614;2022-12-10T00:18:37;58.35;;;29.52;;
57087;SDS011;42965;52.846;6.614;2022-12-10T00:21:05;59.22;;;28.77;;
57087;SDS011;42965;52.846;6.614;2022-12-10T00:23:33;52.72;;;28.60;;
57087;SDS011;42965;52.846;6.614;2022-12-10T00:26:03;54.40;;;28.38;;
57087;SDS011;42965;52.846;6.614;2022-12-10T00:28:31;53.40;;;28.90;;
57087;SDS011;42965;52.846;6.614;2022-12-10T00:31:09;56.67;;;29.98;;
57087;SDS011;42965;52.846;6.614;2022-12-10T00:33:55;52.20;;;28.17;;
57087;SDS011;42965;52.846;6.614;2022-12-10T00:36:24;62.72;;;31.60;;
57087;SDS011;42965;52.846;6.614;2022-12-10T00:38:53;53.20;;;29.02;;
57087;SDS011;42965;52.846;6.614;2022-12-10T00:41:20;56.97;;;28.52;;
57087;SDS011;42965;52.846;6.614;2022-12-10T00:43:47;55.13;;;27.25;;
57087;SDS011;42965;52.846;6.614;2022-12-10T00:46:14;54.00;;;30.90;;
57087;SDS011;42965;52.846;6.614;2022-12-10T00:48:42;62.95;;;31.45;;
57087;SDS011;42965;52.846;6.614;2022-12-10T00:53:37;59.55;;;28.35;;
57087;SDS011;42965;52.846;6.614;2022-12-10T00:56:07;57.28;;;30.13;;
57087;SDS011;42965;52.846;6.614;2022-12-10T00:58:34;53.85;;;28.30;;
57087;SDS011;42965;52.846;6.614;2022-12-10T01:01:09;55.53;;;31.15;;
57087;SDS011;42965;52.846;6.614;2022-12-10T01:03:41;55.22;;;28.60;;
57087;SDS011;42965;52.846;6.614;2022-12-10T01:06:19;63.92;;;30.75;;
57087;SDS011;42965;52.846;6.614;2022-12-10T01:08:58;61.00;;;30.73;;
57087;SDS011;42965;52.846;6.614;2022-12-10T01:11:30;58.83;;;29.67;;
57087;SDS011;42965;52.846;6.614;2022-12-10T01:13:58;62.78;;;31.63;;
57087;SDS011;42965;52.846;6.614;2022-12-10T01:16:25;58.50;;;30.77;;
57087;SDS011;42965;52.846;6.614;2022-12-10T01:18:52;61.67;;;30.55;;
57087;SDS011;42965;52.846;6.614;2022-12-10T01:21:20;56.38;;;29.52;;
57087;SDS011;42965;52.846;6.614;2022-12-10T01:23:48;57.50;;;29.73;;
57087;SDS011;42965;52.846;6.614;2022-12-10T01:26:17;52.88;;;28.10;;
57087;SDS011;42965;52.846;6.614;2022-12-10T01:28:45;61.65;;;32.05;;
57087;SDS011;42965;52.846;6.614;2022-12-10T01:31:14;64.22;;;32.30;;
57087;SDS011;42965;52.846;6.614;2022-12-10T01:33:50;61.67;;;31.30;;
57087;SDS011;42965;52.846;6.614;2022-12-10T01:36:18;60.03;;;31.55;;
57087;SDS011;42965;52.846;6.614;2022-12-10T01:38:46;60.05;;;31.23;;
57087;SDS011;42965;52.846;6.614;2022-12-10T01:41:20;62.80;;;32.03;;
57087;SDS011;42965;52.846;6.614;2022-12-10T01:46:28;66.32;;;32.22;;
57087;SDS011;42965;52.846;6.614;2022-12-10T01:48:56;62.42;;;32.38;;
57087;SDS011;42965;52.846;6.614;2022-12-10T01:51:25;74.38;;;34.28;;
57087;SDS011;42965;52.846;6.614;2022-12-10T01:54:01;66.78;;;32.20;;
57087;SDS011;42965;52.846;6.614;2022-12-10T01:56:35;63.58;;;32.03;;
57087;SDS011;42965;52.846;6.614;2022-12-10T01:59:04;64.68;;;33.97;;
57087;SDS011;42965;52.846;6.614;2022-12-10T02:01:40;64.55;;;33.38;;
57087;SDS011;42965;52.846;6.614;2022-12-10T02:07:08;63.25;;;32.88;;
57087;SDS011;42965;52.846;6.614;2022-12-10T02:13:16;69.55;;;35.67;;
57087;SDS011;42965;52.846;6.614;2022-12-10T02:15:51;68.72;;;32.53;;
57087;SDS011;42965;52.846;6.614;2022-12-10T02:18:26;72.38;;;35.05;;
57087;SDS011;42965;52.846;6.614;2022-12-10T02:21:01;74.50;;;34.08;;
57087;SDS011;42965;52.846;6.614;2022-12-10T02:23:35;71.20;;;34.42;;
57087;SDS011;42965;52.846;6.614;2022-12-10T02:31:47;73.72;;;34.75;;
57087;SDS011;42965;52.846;6.614;2022-12-10T02:34:36;69.78;;;35.22;;
57087;SDS011;42965;52.846;6.614;2022-12-10T02:37:10;69.40;;;33.15;;
57087;SDS011;42965;52.846;6.614;2022-12-10T02:39:44;80.28;;;37.95;;
57087;SDS011;42965;52.846;6.614;2022-12-10T02:42:15;76.65;;;34.65;;
57087;SDS011;42965;52.846;6.614;2022-12-10T02:44:44;73.47;;;33.33;;
57087;SDS011;42965;52.846;6.614;2022-12-10T02:47:17;72.22;;;34.78;;
57087;SDS011;42965;52.846;6.614;2022-12-10T02:49:46;72.50;;;35.67;;
57087;SDS011;42965;52.846;6.614;2022-12-10T02:52:14;71.25;;;35.75;;
57087;SDS011;42965;52.846;6.614;2022-12-10T02:54:47;77.65;;;38.17;;
57087;SDS011;42965;52.846;6.614;2022-12-10T02:57:36;68.90;;;33.20;;
57087;SDS011;42965;52.846;6.614;2022-12-10T03:00:26;73.25;;;33.10;;
57087;SDS011;42965;52.846;6.614;2022-12-10T03:11:29;75.35;;;34.92;;
57087;SDS011;42965;52.846;6.614;2022-12-10T03:16:35;64.57;;;32.45;;
57087;SDS011;42965;52.846;6.614;2022-12-10T03:19:16;79.13;;;34.95;;
57087;SDS011;42965;52.846;6.614;2022-12-10T03:21:46;67.88;;;34.38;;
57087;SDS011;42965;52.846;6.614;2022-12-10T03:24:15;72.50;;;34.67;;
57087;SDS011;42965;52.846;6.614;2022-12-10T03:26:43;68.10;;;34.33;;
57087;SDS011;42965;52.846;6.614;2022-12-10T03:29:21;70.88;;;34.00;;
57087;SDS011;42965;52.846;6.614;2022-12-10T03:32:09;73.95;;;34.95;;
57087;SDS011;42965;52.846;6.614;2022-12-10T03:34:36;72.05;;;35.67;;
57087;SDS011;42965;52.846;6.614;2022-12-10T03:37:04;73.50;;;33.83;;
57087;SDS011;42965;52.846;6.614;2022-12-10T03:39:31;70.60;;;34.08;;
57087;SDS011;42965;52.846;6.614;2022-12-10T03:41:59;75.40;;;33.13;;
57087;SDS011;42965;52.846;6.614;2022-12-10T03:44:32;69.10;;;32.92;;
57087;SDS011;42965;52.846;6.614;2022-12-10T03:47:01;68.47;;;35.00;;
57087;SDS011;42965;52.846;6.614;2022-12-10T03:49:29;76.13;;;34.70;;
57087;SDS011;42965;52.846;6.614;2022-12-10T03:51:55;71.28;;;34.33;;
57087;SDS011;42965;52.846;6.614;2022-12-10T03:54:21;72.57;;;35.45;;
57087;SDS011;42965;52.846;6.614;2022-12-10T03:56:48;78.45;;;35.35;;
57087;SDS011;42965;52.846;6.614;2022-12-10T03:59:15;72.88;;;34.72;;
57087;SDS011;42965;52.846;6.614;2022-12-10T04:01:41;72.05;;;35.80;;
57087;SDS011;42965;52.846;6.614;2022-12-10T04:04:07;74.32;;;34.97;;
57087;SDS011;42965;52.846;6.614;2022-12-10T04:06:37;78.25;;;34.78;;
57087;SDS011;42965;52.846;6.614;2022-12-10T04:09:04;75.78;;;34.53;;
57087;SDS011;42965;52.846;6.614;2022-12-10T04:11:31;70.45;;;35.92;;
57087;SDS011;42965;52.846;6.614;2022-12-10T04:13:57;79.72;;;35.83;;
57087;SDS011;42965;52.846;6.614;2022-12-10T04:16:42;77.85;;;35.83;;
57087;SDS011;42965;52.846;6.614;2022-12-10T04:19:10;77.40;;;35.83;;
57087;SDS011;42965;52.846;6.614;2022-12-10T04:21:40;76.57;;;39.10;;
57087;SDS011;42965;52.846;6.614;2022-12-10T04:24:28;83.90;;;38.13;;
57087;SDS011;42965;52.846;6.614;2022-12-10T04:27:21;78.95;;;35.22;;
57087;SDS011;42965;52.846;6.614;2022-12-10T04:29:51;76.00;;;35.30;;
57087;SDS011;42965;52.846;6.614;2022-12-10T04:32:18;76.13;;;36.85;;
57087;SDS011;42965;52.846;6.614;2022-12-10T04:34:45;80.45;;;36.78;;
57087;SDS011;42965;52.846;6.614;2022-12-10T04:37:12;73.90;;;34.28;;
57087;SDS011;42965;52.846;6.614;2022-12-10T04:39:39;72.20;;;36.05;;
57087;SDS011;42965;52.846;6.614;2022-12-10T04:42:06;74.13;;;34.85;;
57087;SDS011;42965;52.846;6.614;2022-12-10T04:44:33;68.63;;;33.88;;
57087;SDS011;42965;52.846;6.614;2022-12-10T04:46:59;69.68;;;34.20;;
57087;SDS011;42965;52.846;6.614;2022-12-10T04:49:30;75.47;;;35.10;;
57087;SDS011;42965;52.846;6.614;2022-12-10T04:51:57;71.38;;;34.78;;
57087;SDS011;42965;52.846;6.614;2022-12-10T04:54:24;72.25;;;35.22;;
57087;SDS011;42965;52.846;6.614;2022-12-10T04:56:50;73.00;;;35.30;;
57087;SDS011;42965;52.846;6.614;2022-12-10T04:59:18;73.95;;;36.05;;
57087;SDS011;42965;52.846;6.614;2022-12-10T05:01:45;67.53;;;33.33;;
57087;SDS011;42965;52.846;6.614;2022-12-10T05:04:12;81.60;;;37.35;;
57087;SDS011;42965;52.846;6.614;2022-12-10T05:06:40;74.15;;;34.15;;
57087;SDS011;42965;52.846;6.614;2022-12-10T05:09:07;75.63;;;34.38;;
57087;SDS011;42965;52.846;6.614;2022-12-10T05:11:34;70.85;;;35.40;;
57087;SDS011;42965;52.846;6.614;2022-12-10T05:14:01;64.05;;;31.10;;
57087;SDS011;42965;52.846;6.614;2022-12-10T05:16:28;68.10;;;33.05;;
57087;SDS011;42965;52.846;6.614;2022-12-10T05:18:56;73.07;;;35.47;;
57087;SDS011;42965;52.846;6.614;2022-12-10T05:21:24;73.07;;;33.90;;
57087;SDS011;42965;52.846;6.614;2022-12-10T05:24:10;72.70;;;35.80;;
57087;SDS011;42965;52.846;6.614;2022-12-10T05:26:37;77.57;;;36.28;;
57087;SDS011;42965;52.846;6.614;2022-12-10T05:29:03;70.30;;;35.35;;
57087;SDS011;42965;52.846;6.614;2022-12-10T05:31:38;80.47;;;36.50;;
57087;SDS011;42965;52.846;6.614;2022-12-10T05:34:05;77.38;;;35.92;;
57087;SDS011;42965;52.846;6.614;2022-12-10T05:36:33;65.68;;;32.22;;
57087;SDS011;42965;52.846;6.614;2022-12-10T05:39:00;74.95;;;37.00;;
57087;SDS011;42965;52.846;6.614;2022-12-10T05:41:27;68.32;;;33.90;;
57087;SDS011;42965;52.846;6.614;2022-12-10T05:43:55;74.03;;;34.50;;
57087;SDS011;42965;52.846;6.614;2022-12-10T05:46:27;72.22;;;34.78;;
57087;SDS011;42965;52.846;6.614;2022-12-10T05:49:06;80.15;;;34.30;;
57087;SDS011;42965;52.846;6.614;2022-12-10T05:51:34;72.82;;;34.00;;
57087;SDS011;42965;52.846;6.614;2022-12-10T05:54:03;73.55;;;33.88;;
57087;SDS011;42965;52.846;6.614;2022-12-10T05:56:31;71.35;;;34.03;;
57087;SDS011;42965;52.846;6.614;2022-12-10T05:59:01;81.32;;;39.90;;
57087;SDS011;42965;52.846;6.614;2022-12-10T06:01:30;71.18;;;33.80;;
57087;SDS011;42965;52.846;6.614;2022-12-10T06:03:59;73.45;;;34.60;;
57087;SDS011;42965;52.846;6.614;2022-12-10T06:06:28;72.70;;;32.80;;
57087;SDS011;42965;52.846;6.614;2022-12-10T06:09:01;76.57;;;36.88;;
57087;SDS011;42965;52.846;6.614;2022-12-10T06:11:28;72.10;;;36.70;;
57087;SDS011;42965;52.846;6.614;2022-12-10T06:13:58;77.00;;;35.15;;
57087;SDS011;42965;52.846;6.614;2022-12-10T06:16:26;75.25;;;36.25;;
57087;SDS011;42965;52.846;6.614;2022-12-10T06:18:53;71.93;;;36.55;;
57087;SDS011;42965;52.846;6.614;2022-12-10T06:21:20;78.47;;;36.15;;
57087;SDS011;42965;52.846;6.614;2022-12-10T06:23:47;74.93;;;35.65;;
57087;SDS011;42965;52.846;6.614;2022-12-10T06:26:18;69.65;;;35.30;;
57087;SDS011;42965;52.846;6.614;2022-12-10T06:28:49;85.45;;;38.55;;
57087;SDS011;42965;52.846;6.614;2022-12-10T06:31:16;70.82;;;34.40;;
57087;SDS011;42965;52.846;6.614;2022-12-10T06:33:43;73.50;;;35.60;;
57087;SDS011;42965;52.846;6.614;2022-12-10T06:36:11;66.10;;;33.83;;
57087;SDS011;42965;52.846;6.614;2022-12-10T06:38:43;67.22;;;34.80;;
57087;SDS011;42965;52.846;6.614;2022-12-10T06:41:11;71.07;;;33.90;;
57087;SDS011;42965;52.846;6.614;2022-12-10T06:43:46;78.72;;;35.63;;
57087;SDS011;42965;52.846;6.614;2022-12-10T06:46:14;78.45;;;34.72;;
57087;SDS011;42965;52.846;6.614;2022-12-10T06:48:43;71.32;;;34.85;;
57087;SDS011;42965;52.846;6.614;2022-12-10T06:51:10;75.35;;;36.60;;
57087;SDS011;42965;52.846;6.614;2022-12-10T06:53:38;71.20;;;38.30;;
57087;SDS011;42965;52.846;6.614;2022-12-10T06:56:06;77.90;;;37.28;;
57087;SDS011;42965;52.846;6.614;2022-12-10T06:58:42;76.95;;;35.45;;
57087;SDS011;42965;52.846;6.614;2022-12-10T07:01:13;74.63;;;35.65;;
57087;SDS011;42965;52.846;6.614;2022-12-10T07:03:51;79.82;;;35.33;;
57087;SDS011;42965;52.846;6.614;2022-12-10T07:06:19;80.28;;;36.50;;
57087;SDS011;42965;52.846;6.614;2022-12-10T07:08:46;83.72;;;36.95;;
57087;SDS011;42965;52.846;6.614;2022-12-10T07:11:14;72.40;;;35.60;;
57087;SDS011;42965;52.846;6.614;2022-12-10T07:13:42;73.28;;;34.15;;
57087;SDS011;42965;52.846;6.614;2022-12-10T07:16:22;70.63;;;35.05;;
57087;SDS011;42965;52.846;6.614;2022-12-10T07:18:51;75.40;;;38.20;;
57087;SDS011;42965;52.846;6.614;2022-12-10T07:23:50;81.25;;;36.05;;
57087;SDS011;42965;52.846;6.614;2022-12-10T07:26:24;77.75;;;35.90;;
57087;SDS011;42965;52.846;6.614;2022-12-10T07:28:51;77.18;;;37.13;;
57087;SDS011;42965;52.846;6.614;2022-12-10T07:31:18;79.68;;;36.88;;
57087;SDS011;42965;52.846;6.614;2022-12-10T07:33:46;80.68;;;37.30;;
57087;SDS011;42965;52.846;6.614;2022-12-10T07:36:13;79.93;;;36.90;;
57087;SDS011;42965;52.846;6.614;2022-12-10T07:38:41;78.80;;;37.63;;
57087;SDS011;42965;52.846;6.614;2022-12-10T07:41:10;80.15;;;37.33;;
57087;SDS011;42965;52.846;6.614;2022-12-10T07:43:38;77.05;;;37.50;;
57087;SDS011;42965;52.846;6.614;2022-12-10T07:46:10;85.35;;;39.35;;
57087;SDS011;42965;52.846;6.614;2022-12-10T07:48:47;80.88;;;37.30;;
57087;SDS011;42965;52.846;6.614;2022-12-10T07:51:14;82.53;;;40.13;;
57087;SDS011;42965;52.846;6.614;2022-12-10T07:53:42;85.93;;;38.13;;
57087;SDS011;42965;52.846;6.614;2022-12-10T07:56:10;76.28;;;37.42;;
57087;SDS011;42965;52.846;6.614;2022-12-10T07:58:36;80.97;;;37.10;;
57087;SDS011;42965;52.846;6.614;2022-12-10T08:01:06;77.72;;;37.17;;
57087;SDS011;42965;52.846;6.614;2022-12-10T08:03:34;76.57;;;36.30;;
57087;SDS011;42965;52.846;6.614;2022-12-10T08:06:02;76.13;;;38.08;;
57087;SDS011;42965;52.846;6.614;2022-12-10T08:08:40;87.93;;;39.97;;
57087;SDS011;42965;52.846;6.614;2022-12-10T08:11:07;82.47;;;38.17;;
57087;SDS011;42965;52.846;6.614;2022-12-10T08:13:34;82.75;;;37.88;;
57087;SDS011;42965;52.846;6.614;2022-12-10T08:16:05;76.88;;;36.80;;
57087;SDS011;42965;52.846;6.614;2022-12-10T08:18:34;71.88;;;35.05;;
57087;SDS011;42965;52.846;6.614;2022-12-10T08:21:04;76.88;;;38.78;;
57087;SDS011;42965;52.846;6.614;2022-12-10T08:23:43;74.05;;;36.92;;
57087;SDS011;42965;52.846;6.614;2022-12-10T08:26:18;71.22;;;36.25;;
57087;SDS011;42965;52.846;6.614;2022-12-10T08:28:46;70.07;;;37.15;;
57087;SDS011;42965;52.846;6.614;2022-12-10T08:31:15;75.32;;;35.40;;
57087;SDS011;42965;52.846;6.614;2022-12-10T08:33:42;84.32;;;40.72;;
57087;SDS011;42965;52.846;6.614;2022-12-10T08:36:13;75.32;;;36.83;;
57087;SDS011;42965;52.846;6.614;2022-12-10T08:38:41;76.28;;;37.80;;
57087;SDS011;42965;52.846;6.614;2022-12-10T08:41:13;73.25;;;37.38;;
57087;SDS011;42965;52.846;6.614;2022-12-10T08:43:41;70.70;;;36.38;;
57087;SDS011;42965;52.846;6.614;2022-12-10T08:46:07;70.57;;;36.70;;
57087;SDS011;42965;52.846;6.614;2022-12-10T08:48:34;74.07;;;36.58;;
57087;SDS011;42965;52.846;6.614;2022-12-10T08:51:02;74.18;;;37.00;;
57087;SDS011;42965;52.846;6.614;2022-12-10T08:53:30;74.07;;;38.15;;
57087;SDS011;42965;52.846;6.614;2022-12-10T08:55:57;66.82;;;37.67;;
57087;SDS011;42965;52.846;6.614;2022-12-10T08:58:24;79.63;;;37.95;;
57087;SDS011;42965;52.846;6.614;2022-12-10T09:00:50;76.82;;;37.53;;
57087;SDS011;42965;52.846;6.614;2022-12-10T09:03:18;72.70;;;37.30;;
57087;SDS011;42965;52.846;6.614;2022-12-10T09:05:44;75.80;;;36.40;;
57087;SDS011;42965;52.846;6.614;2022-12-10T09:08:11;71.68;;;35.65;;
57087;SDS011;42965;52.846;6.614;2022-12-10T09:10:38;73.70;;;37.22;;
57087;SDS011;42965;52.846;6.614;2022-12-10T09:13:05;77.85;;;38.38;;
57087;SDS011;42965;52.846;6.614;2022-12-10T09:15:31;76.65;;;39.97;;
57087;SDS011;42965;52.846;6.614;2022-12-10T09:17:58;76.78;;;38.05;;
57087;SDS011;42965;52.846;6.614;2022-12-10T09:20:24;71.60;;;36.65;;
57087;SDS011;42965;52.846;6.614;2022-12-10T09:22:50;76.30;;;36.88;;
57087;SDS011;42965;52.846;6.614;2022-12-10T09:25:17;82.15;;;38.90;;
57087;SDS011;42965;52.846;6.614;2022-12-10T09:27:46;71.35;;;38.20;;
57087;SDS011;42965;52.846;6.614;2022-12-10T09:30:13;75.03;;;38.63;;
57087;SDS011;42965;52.846;6.614;2022-12-10T09:32:41;71.45;;;36.50;;
57087;SDS011;42965;52.846;6.614;2022-12-10T09:35:07;71.70;;;38.08;;
57087;SDS011;42965;52.846;6.614;2022-12-10T09:37:34;77.35;;;38.28;;
57087;SDS011;42965;52.846;6.614;2022-12-10T09:40:00;70.40;;;37.67;;
57087;SDS011;42965;52.846;6.614;2022-12-10T09:42:52;75.90;;;36.88;;
57087;SDS011;42965;52.846;6.614;2022-12-10T09:52:16;70.15;;;36.70;;
57087;SDS011;42965;52.846;6.614;2022-12-10T09:55:13;78.18;;;37.60;;
57087;SDS011;42965;52.846;6.614;2022-12-10T09:58:06;82.18;;;38.00;;
57087;SDS011;42965;52.846;6.614;2022-12-10T10:01:01;75.35;;;36.85;;
57087;SDS011;42965;52.846;6.614;2022-12-10T10:03:50;78.63;;;40.45;;
57087;SDS011;42965;52.846;6.614;2022-12-10T10:06:36;72.32;;;37.13;;
57087;SDS011;42965;52.846;6.614;2022-12-10T10:09:23;76.10;;;39.10;;
57087;SDS011;42965;52.846;6.614;2022-12-10T10:12:12;73.15;;;36.95;;
57087;SDS011;42965;52.846;6.614;2022-12-10T10:15:09;72.00;;;35.63;;
57087;SDS011;42965;52.846;6.614;2022-12-10T10:18:02;75.10;;;37.67;;
57087;SDS011;42965;52.846;6.614;2022-12-10T10:20:47;84.25;;;40.92;;
57087;SDS011;42965;52.846;6.614;2022-12-10T10:23:18;79.18;;;37.10;;
57087;SDS011;42965;52.846;6.614;2022-12-10T10:25:45;82.95;;;40.80;;
57087;SDS011;42965;52.846;6.614;2022-12-10T10:28:12;81.13;;;38.67;;
57087;SDS011;42965;52.846;6.614;2022-12-10T10:30:42;85.40;;;39.45;;
57087;SDS011;42965;52.846;6.614;2022-12-10T10:33:11;77.30;;;40.00;;
57087;SDS011;42965;52.846;6.614;2022-12-10T10:35:44;80.93;;;41.85;;
57087;SDS011;42965;52.846;6.614;2022-12-10T10:38:22;88.85;;;42.35;;
57087;SDS011;42965;52.846;6.614;2022-12-10T10:40:54;76.47;;;38.88;;
57087;SDS011;42965;52.846;6.614;2022-12-10T10:43:26;81.93;;;39.00;;
57087;SDS011;42965;52.846;6.614;2022-12-10T10:45:58;79.90;;;38.35;;
57087;SDS011;42965;52.846;6.614;2022-12-10T10:48:28;84.23;;;39.33;;
57087;SDS011;42965;52.846;6.614;2022-12-10T10:51:18;77.13;;;37.40;;
57087;SDS011;42965;52.846;6.614;2022-12-10T10:53:53;79.95;;;38.33;;
57087;SDS011;42965;52.846;6.614;2022-12-10T10:56:22;81.50;;;39.15;;
57087;SDS011;42965;52.846;6.614;2022-12-10T10:58:54;77.82;;;37.47;;
57087;SDS011;42965;52.846;6.614;2022-12-10T11:04:50;74.07;;;35.03;;
57087;SDS011;42965;52.846;6.614;2022-12-10T11:09:44;75.55;;;35.05;;
57087;SDS011;42965;52.846;6.614;2022-12-10T11:12:27;72.43;;;37.00;;
57087;SDS011;42965;52.846;6.614;2022-12-10T11:14:58;82.50;;;38.20;;
57087;SDS011;42965;52.846;6.614;2022-12-10T11:17:25;78.43;;;36.92;;
57087;SDS011;42965;52.846;6.614;2022-12-10T11:22:48;87.40;;;43.15;;
57087;SDS011;42965;52.846;6.614;2022-12-10T11:25:16;81.78;;;37.47;;
57087;SDS011;42965;52.846;6.614;2022-12-10T11:30:49;72.15;;;35.10;;
57087;SDS011;42965;52.846;6.614;2022-12-10T11:33:34;72.78;;;36.85;;
57087;SDS011;42965;52.846;6.614;2022-12-10T11:36:34;76.18;;;36.03;;
57087;SDS011;42965;52.846;6.614;2022-12-10T11:39:39;79.97;;;37.67;;
57087;SDS011;42965;52.846;6.614;2022-12-10T11:42:14;81.75;;;39.03;;
57087;SDS011;42965;52.846;6.614;2022-12-10T11:50:36;82.90;;;37.60;;
57087;SDS011;42965;52.846;6.614;2022-12-10T11:56:03;80.25;;;37.00;;
57087;SDS011;42965;52.846;6.614;2022-12-10T12:14:24;73.07;;;34.88;;
57087;SDS011;42965;52.846;6.614;2022-12-10T12:17:07;70.88;;;33.80;;
57087;SDS011;42965;52.846;6.614;2022-12-10T12:19:55;69.40;;;34.42;;
57087;SDS011;42965;52.846;6.614;2022-12-10T12:22:30;68.65;;;32.63;;
57087;SDS011;42965;52.846;6.614;2022-12-10T12:30:51;65.90;;;31.85;;
57087;SDS011;42965;52.846;6.614;2022-12-10T12:36:09;67.68;;;31.65;;
57087;SDS011;42965;52.846;6.614;2022-12-10T12:41:36;75.20;;;35.85;;
57087;SDS011;42965;52.846;6.614;2022-12-10T12:46:56;71.22;;;33.90;;
57087;SDS011;42965;52.846;6.614;2022-12-10T12:49:29;79.55;;;34.53;;
57087;SDS011;42965;52.846;6.614;2022-12-10T12:55:13;79.05;;;36.70;;
57087;SDS011;42965;52.846;6.614;2022-12-10T12:57:53;86.53;;;36.35;;
57087;SDS011;42965;52.846;6.614;2022-12-10T13:00:28;89.70;;;37.27;;
57087;SDS011;42965;52.846;6.614;2022-12-10T13:11:42;91.40;;;37.40;;
57087;SDS011;42965;52.846;6.614;2022-12-10T13:14:53;94.40;;;39.38;;
57087;SDS011;42965;52.846;6.614;2022-12-10T13:22:54;87.72;;;37.88;;
57087;SDS011;42965;52.846;6.614;2022-12-10T13:28:48;84.32;;;39.33;;
57087;SDS011;42965;52.846;6.614;2022-12-10T13:36:26;89.55;;;38.17;;
57087;SDS011;42965;52.846;6.614;2022-12-10T13:41:41;93.68;;;39.17;;
57087;SDS011;42965;52.846;6.614;2022-12-10T13:44:47;83.97;;;40.00;;
57087;SDS011;42965;52.846;6.614;2022-12-10T13:47:26;89.70;;;39.90;;
57087;SDS011;42965;52.846;6.614;2022-12-10T13:49:59;89.28;;;38.75;;
57087;SDS011;42965;52.846;6.614;2022-12-10T14:06:25;85.27;;;37.80;;
57087;SDS011;42965;52.846;6.614;2022-12-10T14:09:35;84.97;;;37.25;;
57087;SDS011;42965;52.846;6.614;2022-12-10T14:12:04;86.43;;;38.63;;
57087;SDS011;42965;52.846;6.614;2022-12-10T14:14:40;84.30;;;36.58;;
57087;SDS011;42965;52.846;6.614;2022-12-10T14:17:31;84.05;;;36.60;;
57087;SDS011;42965;52.846;6.614;2022-12-10T14:20:11;80.60;;;36.47;;
57087;SDS011;42965;52.846;6.614;2022-12-10T14:22:52;84.75;;;36.63;;
57087;SDS011;42965;52.846;6.614;2022-12-10T14:25:43;87.63;;;37.08;;
57087;SDS011;42965;52.846;6.614;2022-12-10T14:28:12;98.63;;;41.05;;
57087;SDS011;42965;52.846;6.614;2022-12-10T14:30:45;94.57;;;42.10;;
57087;SDS011;42965;52.846;6.614;2022-12-10T14:33:15;98.22;;;38.60;;
57087;SDS011;42965;52.846;6.614;2022-12-10T14:35:47;98.57;;;43.15;;
57087;SDS011;42965;52.846;6.614;2022-12-10T14:38:23;94.20;;;39.13;;
57087;SDS011;42965;52.846;6.614;2022-12-10T14:40:55;97.65;;;40.47;;
57087;SDS011;42965;52.846;6.614;2022-12-10T14:43:22;88.78;;;38.47;;
57087;SDS011;42965;52.846;6.614;2022-12-10T14:45:56;98.63;;;41.25;;
57087;SDS011;42965;52.846;6.614;2022-12-10T14:48:24;94.32;;;40.92;;
57087;SDS011;42965;52.846;6.614;2022-12-10T14:50:51;92.85;;;37.90;;
57087;SDS011;42965;52.846;6.614;2022-12-10T14:53:25;86.57;;;36.90;;
57087;SDS011;42965;52.846;6.614;2022-12-10T14:55:53;89.82;;;38.75;;
57087;SDS011;42965;52.846;6.614;2022-12-10T14:58:27;101.55;;;42.90;;
57087;SDS011;42965;52.846;6.614;2022-12-10T15:01:05;94.05;;;39.95;;
57087;SDS011;42965;52.846;6.614;2022-12-10T15:03:39;90.88;;;35.80;;
57087;SDS011;42965;52.846;6.614;2022-12-10T15:06:12;93.63;;;38.25;;
57087;SDS011;42965;52.846;6.614;2022-12-10T15:08:44;89.32;;;36.45;;
57087;SDS011;42965;52.846;6.614;2022-12-10T15:11:14;90.45;;;36.70;;
57087;SDS011;42965;52.846;6.614;2022-12-10T15:13:45;90.00;;;38.28;;
57087;SDS011;42965;52.846;6.614;2022-12-10T15:16:58;85.72;;;37.40;;
57087;SDS011;42965;52.846;6.614;2022-12-10T15:21:42;98.63;;;39.08;;
57087;SDS011;42965;52.846;6.614;2022-12-10T15:24:27;90.68;;;38.42;;
57087;SDS011;42965;52.846;6.614;2022-12-10T15:27:02;90.07;;;35.70;;
57087;SDS011;42965;52.846;6.614;2022-12-10T15:29:38;86.55;;;37.42;;
57087;SDS011;42965;52.846;6.614;2022-12-10T15:32:38;82.75;;;34.50;;
57087;SDS011;42965;52.846;6.614;2022-12-10T15:35:00;91.38;;;36.90;;
57087;SDS011;42965;52.846;6.614;2022-12-10T15:37:34;87.13;;;35.13;;
57087;SDS011;42965;52.846;6.614;2022-12-10T15:40:05;90.72;;;38.55;;
57087;SDS011;42965;52.846;6.614;2022-12-10T15:42:55;83.75;;;35.35;;
57087;SDS011;42965;52.846;6.614;2022-12-10T15:45:40;81.57;;;34.90;;
57087;SDS011;42965;52.846;6.614;2022-12-10T15:48:08;79.35;;;35.45;;
57087;SDS011;42965;52.846;6.614;2022-12-10T15:50:37;85.53;;;34.83;;
57087;SDS011;42965;52.846;6.614;2022-12-10T15:53:04;92.13;;;35.88;;
57087;SDS011;42965;52.846;6.614;2022-12-10T15:55:30;83.18;;;35.60;;
57087;SDS011;42965;52.846;6.614;2022-12-10T15:57:57;90.60;;;36.85;;
57087;SDS011;42965;52.846;6.614;2022-12-10T16:00:24;86.55;;;36.35;;
57087;SDS011;42965;52.846;6.614;2022-12-10T16:02:53;83.13;;;34.10;;
57087;SDS011;42965;52.846;6.614;2022-12-10T16:05:29;79.03;;;33.22;;
57087;SDS011;42965;52.846;6.614;2022-12-10T16:08:00;85.95;;;36.95;;
57087;SDS011;42965;52.846;6.614;2022-12-10T16:10:29;78.63;;;30.33;;
57087;SDS011;42965;52.846;6.614;2022-12-10T16:15:30;82.07;;;32.40;;
57087;SDS011;42965;52.846;6.614;2022-12-10T16:18:04;77.50;;;31.35;;
57087;SDS011;42965;52.846;6.614;2022-12-10T16:20:32;90.05;;;35.45;;
57087;SDS011;42965;52.846;6.614;2022-12-10T16:22:59;88.25;;;36.33;;
57087;SDS011;42965;52.846;6.614;2022-12-10T16:25:27;80.10;;;36.40;;
57087;SDS011;42965;52.846;6.614;2022-12-10T16:27:54;84.32;;;34.13;;
57087;SDS011;42965;52.846;6.614;2022-12-10T16:30:22;85.15;;;35.80;;
57087;SDS011;42965;52.846;6.614;2022-12-10T16:32:50;92.85;;;36.13;;
57087;SDS011;42965;52.846;6.614;2022-12-10T16:35:17;88.65;;;35.05;;
57087;SDS011;42965;52.846;6.614;2022-12-10T16:37:45;92.00;;;33.17;;
57087;SDS011;42965;52.846;6.614;2022-12-10T16:40:20;92.43;;;34.95;;
57087;SDS011;42965;52.846;6.614;2022-12-10T16:42:50;109.70;;;50.63;;
57087;SDS011;42965;52.846;6.614;2022-12-10T16:45:18;79.00;;;32.85;;
57087;SDS011;42965;52.846;6.614;2022-12-10T16:47:51;83.85;;;33.33;;
57087;SDS011;42965;52.846;6.614;2022-12-10T16:50:19;92.30;;;34.95;;
57087;SDS011;42965;52.846;6.614;2022-12-10T16:52:46;98.82;;;36.85;;
57087;SDS011;42965;52.846;6.614;2022-12-10T16:55:14;93.22;;;33.65;;
57087;SDS011;42965;52.846;6.614;2022-12-10T16:57:42;88.80;;;32.97;;
57087;SDS011;42965;52.846;6.614;2022-12-10T17:00:15;91.90;;;31.50;;
57087;SDS011;42965;52.846;6.614;2022-12-10T17:02:43;94.43;;;34.42;;
57087;SDS011;42965;52.846;6.614;2022-12-10T17:05:22;98.30;;;34.17;;